Time;durP1;ratioP1;P1;durP2;ratioP2;P2;SDS_P1;SDS_P2;PMS_P1;PMS_P2;Temp;Humidity;BMP_temperature;BMP_pressure;BME280_temperature;BME280_humidity;BME280_pressure;Samples;Min_cycle;Max_cycle;Signal;HPM_P1;HPM_P2
2023/01/29 00:01:12;;;;;;;11.10;9.20;;;;;;;;;;5016603;28;20239;-83
2023/01/29 00:03:39;;;;;;;10.13;8.13;;;;;;;;;;5018981;28;20216;-82
2023/01/29 00:06:08;;;;;;;9.73;7.53;;;;;;;;;;5018670;28;20299;-81
2023/01/29 00:08:36;;;;;;;7.20;6.60;;;;;;;;;;5019367;28;20275;-82
2023/01/29 00:11:04;;;;;;;7.43;6.73;;;;;;;;;;5017388;28;20204;-83
2023/01/29 00:13:33;;;;;;;7.50;6.80;;;;;;;;;;5024442;28;20247;-82
2023/01/29 00:16:01;;;;;;;8.17;7.30;;;;;;;;;;5023762;28;20223;-82
2023/01/29 00:18:28;;;;;;;7.60;6.53;;;;;;;;;;5018566;28;20196;-82
2023/01/29 00:20:56;;;;;;;8.73;7.23;;;;;;;;;;5016957;28;20200;-84
2023/01/29 00:23:23;;;;;;;13.17;10.07;;;;;;;;;;5018593;28;20196;-84
2023/01/29 00:25:52;;;;;;;10.57;7.90;;;;;;;;;;5019898;28;20203;-83
2023/01/29 00:28:19;;;;;;;11.13;7.10;;;;;;;;;;5016429;28;20196;-82
2023/01/29 00:30:46;;;;;;;8.07;7.27;;;;;;;;;;5018566;28;20227;-84
2023/01/29 00:33:13;;;;;;;7.20;6.50;;;;;;;;;;5021031;28;20196;-83
2023/01/29 00:35:41;;;;;;;7.70;6.93;;;;;;;;;;5026105;28;20200;-81
2023/01/29 00:38:09;;;;;;;7.03;6.43;;;;;;;;;;5026307;28;20188;-82
2023/01/29 00:46:06;;;;;;;8.00;7.20;;;;;;;;;;5020056;28;20207;-84
2023/01/29 00:48:34;;;;;;;8.27;7.37;;;;;;;;;;5025430;28;20207;-83
2023/01/29 00:51:01;;;;;;;7.93;7.13;;;;;;;;;;5025486;28;20195;-83
2023/01/29 00:53:28;;;;;;;9.30;7.33;;;;;;;;;;5025326;28;20284;-82
2023/01/29 00:55:55;;;;;;;7.37;6.67;;;;;;;;;;5025896;28;20281;-82
2023/01/29 00:58:27;;;;;;;8.07;7.17;;;;;;;;;;5023165;28;20263;-81
2023/01/29 01:00:55;;;;;;;8.23;7.03;;;;;;;;;;5024660;28;20216;-81
2023/01/29 01:03:21;;;;;;;8.00;7.20;;;;;;;;;;5025594;28;20238;-82
2023/01/29 01:05:49;;;;;;;8.23;7.43;;;;;;;;;;5024990;28;20254;-81
2023/01/29 01:11:01;;;;;;;7.80;6.80;;;;;;;;;;5021235;28;20195;-83
2023/01/29 01:13:30;;;;;;;6.63;6.03;;;;;;;;;;5023895;28;20208;-83
2023/01/29 01:15:57;;;;;;;6.83;6.23;;;;;;;;;;5024593;28;20232;-82
2023/01/29 01:18:25;;;;;;;7.33;6.60;;;;;;;;;;5025503;28;20192;-82
2023/01/29 01:20:57;;;;;;;7.50;6.70;;;;;;;;;;5028176;28;20200;-82
2023/01/29 01:23:24;;;;;;;7.63;6.93;;;;;;;;;;5024950;28;20202;-83
2023/01/29 01:25:51;;;;;;;7.80;7.10;;;;;;;;;;5027914;28;20283;-82
2023/01/29 01:28:19;;;;;;;8.00;7.20;;;;;;;;;;5028790;28;20192;-82
2023/01/29 01:30:47;;;;;;;7.83;6.83;;;;;;;;;;5027953;28;20283;-82
2023/01/29 01:33:14;;;;;;;7.77;6.97;;;;;;;;;;5030365;28;20263;-82
2023/01/29 01:35:42;;;;;;;7.60;6.90;;;;;;;;;;5027967;28;20200;-82
2023/01/29 01:38:09;;;;;;;7.80;7.00;;;;;;;;;;5027725;28;20188;-81
2023/01/29 01:40:36;;;;;;;7.17;6.47;;;;;;;;;;5028091;28;20199;-84
2023/01/29 01:43:04;;;;;;;7.23;6.53;;;;;;;;;;5026728;28;20200;-81
2023/01/29 01:45:32;;;;;;;7.50;6.80;;;;;;;;;;5027942;28;20227;-81
2023/01/29 01:48:02;;;;;;;7.00;6.30;;;;;;;;;;5023602;28;20201;-82
2023/01/29 01:50:32;;;;;;;7.00;6.40;;;;;;;;;;5029127;28;20199;-82
2023/01/29 01:53:01;;;;;;;7.70;6.90;;;;;;;;;;5028383;28;20298;-81
2023/01/29 01:55:31;;;;;;;7.33;6.63;;;;;;;;;;5024399;28;20193;-83
2023/01/29 01:58:02;;;;;;;8.23;6.90;;;;;;;;;;5027580;28;20204;-82
2023/01/29 02:00:30;;;;;;;7.33;6.73;;;;;;;;;;5026774;28;20203;-82
2023/01/29 02:11:15;;;;;;;7.77;6.97;;;;;;;;;;5025041;28;20575;-81
2023/01/29 02:13:43;;;;;;;7.33;6.63;;;;;;;;;;5027418;28;20282;-82
2023/01/29 02:16:10;;;;;;;8.33;6.80;;;;;;;;;;5026939;28;20232;-81
2023/01/29 02:18:38;;;;;;;8.63;7.83;;;;;;;;;;5027794;28;20223;-82
2023/01/29 02:21:23;;;;;;;8.03;7.23;;;;;;;;;;5022028;28;20227;-81
2023/01/29 02:24:12;;;;;;;7.97;7.17;;;;;;;;;;5028219;28;20208;-83
2023/01/29 02:26:45;;;;;;;7.73;7.03;;;;;;;;;;5027165;28;20196;-81
2023/01/29 02:29:26;;;;;;;7.53;6.83;;;;;;;;;;5026391;28;20196;-82
2023/01/29 02:32:09;;;;;;;7.27;6.60;;;;;;;;;;5020896;28;20211;-82
2023/01/29 02:37:27;;;;;;;7.70;6.90;;;;;;;;;;5026682;28;20327;-82
2023/01/29 02:39:58;;;;;;;7.97;7.27;;;;;;;;;;5027144;28;20207;-83
2023/01/29 02:42:27;;;;;;;7.70;6.90;;;;;;;;;;5021750;28;20196;-82
2023/01/29 02:45:00;;;;;;;8.20;7.40;;;;;;;;;;5021424;28;20292;-81
2023/01/29 02:47:31;;;;;;;8.00;7.20;;;;;;;;;;5025571;28;20196;-83
2023/01/29 02:50:02;;;;;;;8.43;7.57;;;;;;;;;;5024904;28;20215;-83
2023/01/29 02:52:34;;;;;;;7.90;7.10;;;;;;;;;;5025065;28;20208;-82
2023/01/29 02:55:05;;;;;;;8.03;7.23;;;;;;;;;;5024424;28;20287;-82
2023/01/29 02:57:34;;;;;;;8.37;7.50;;;;;;;;;;5022115;28;20220;-81
2023/01/29 03:00:06;;;;;;;8.00;7.20;;;;;;;;;;5026597;28;20210;-80
2023/01/29 03:02:36;;;;;;;8.30;7.27;;;;;;;;;;5025943;28;20189;-82
2023/01/29 03:05:05;;;;;;;8.57;7.67;;;;;;;;;;5022733;28;20212;-81
2023/01/29 03:07:43;;;;;;;7.50;6.80;;;;;;;;;;5025234;28;20200;-81
2023/01/29 03:10:15;;;;;;;8.03;7.23;;;;;;;;;;5026164;28;20242;-80
2023/01/29 03:12:44;;;;;;;8.00;7.20;;;;;;;;;;5024391;28;20279;-80
2023/01/29 03:15:16;;;;;;;7.73;7.03;;;;;;;;;;5024536;28;20204;-82
2023/01/29 03:17:47;;;;;;;8.60;7.80;;;;;;;;;;5025307;28;20237;-81
2023/01/29 03:20:17;;;;;;;8.87;7.97;;;;;;;;;;5027007;28;20196;-80
2023/01/29 03:22:46;;;;;;;8.40;7.60;;;;;;;;;;5025808;28;20287;-80
2023/01/29 03:33:40;;;;;;;7.97;6.93;;;;;;;;;;5023800;28;20211;-80
2023/01/29 03:36:09;;;;;;;8.53;7.63;;;;;;;;;;5026001;28;20196;-82
2023/01/29 03:38:37;;;;;;;8.40;7.57;;;;;;;;;;5025449;28;20231;-82
2023/01/29 03:41:07;;;;;;;8.77;7.87;;;;;;;;;;5025426;28;20196;-81
2023/01/29 03:43:35;;;;;;;8.73;7.80;;;;;;;;;;5026252;28;20283;-80
2023/01/29 03:46:07;;;;;;;8.77;7.47;;;;;;;;;;5025357;28;20223;-81
2023/01/29 03:48:36;;;;;;;7.93;7.10;;;;;;;;;;5024032;28;20214;-82
2023/01/29 03:51:11;;;;;;;7.80;7.00;;;;;;;;;;5025908;28;20200;-81
2023/01/29 03:53:43;;;;;;;7.87;7.07;;;;;;;;;;5025424;28;20206;-81
2023/01/29 03:56:16;;;;;;;8.00;7.20;;;;;;;;;;5022765;28;20200;-81
2023/01/29 03:58:46;;;;;;;7.73;6.97;;;;;;;;;;5024906;28;20276;-81
2023/01/29 04:01:17;;;;;;;9.47;7.07;;;;;;;;;;5023157;28;20260;-81
2023/01/29 04:03:49;;;;;;;7.47;6.77;;;;;;;;;;5026135;28;20275;-82
2023/01/29 04:06:18;;;;;;;8.30;7.50;;;;;;;;;;5025310;28;20243;-82
2023/01/29 04:08:48;;;;;;;8.03;7.23;;;;;;;;;;5023988;28;20208;-82
2023/01/29 04:11:17;;;;;;;8.57;7.03;;;;;;;;;;5025116;28;20204;-81
2023/01/29 04:13:46;;;;;;;8.83;7.63;;;;;;;;;;5023804;28;20231;-82
2023/01/29 04:16:17;;;;;;;8.13;7.33;;;;;;;;;;5025183;28;20314;-81
2023/01/29 04:18:45;;;;;;;7.73;7.03;;;;;;;;;;5021007;28;20261;-82
2023/01/29 04:21:13;;;;;;;8.33;7.43;;;;;;;;;;5025619;28;20208;-82
2023/01/29 04:23:40;;;;;;;8.40;7.60;;;;;;;;;;5025803;28;20227;-82
2023/01/29 04:26:17;;;;;;;7.93;7.20;;;;;;;;;;5025830;28;20314;-82
2023/01/29 04:28:50;;;;;;;8.47;7.67;;;;;;;;;;5024371;28;20196;-81
2023/01/29 04:31:23;;;;;;;7.83;7.03;;;;;;;;;;5025478;28;20192;-81
2023/01/29 04:33:53;;;;;;;8.30;7.47;;;;;;;;;;5025621;28;20294;-81
2023/01/29 04:36:28;;;;;;;7.67;6.97;;;;;;;;;;5023651;28;20194;-81
2023/01/29 04:39:03;;;;;;;8.00;7.20;;;;;;;;;;5024898;28;20223;-82
2023/01/29 04:41:33;;;;;;;7.80;7.00;;;;;;;;;;5026670;28;20199;-82
2023/01/29 04:44:03;;;;;;;8.50;7.70;;;;;;;;;;5023093;28;20200;-81
2023/01/29 04:46:35;;;;;;;7.80;6.93;;;;;;;;;;5024203;28;20214;-82
2023/01/29 04:49:08;;;;;;;7.73;7.03;;;;;;;;;;5020828;28;20197;-80
2023/01/29 04:51:38;;;;;;;8.00;7.20;;;;;;;;;;5023602;28;20190;-81
2023/01/29 04:54:09;;;;;;;8.43;7.60;;;;;;;;;;5026768;28;20201;-84
2023/01/29 04:56:41;;;;;;;8.40;7.27;;;;;;;;;;5027044;28;20236;-81
2023/01/29 04:59:09;;;;;;;7.83;7.13;;;;;;;;;;5029423;28;20227;-81
2023/01/29 05:01:39;;;;;;;8.37;7.57;;;;;;;;;;5028041;28;20224;-82
2023/01/29 05:04:09;;;;;;;8.10;6.87;;;;;;;;;;5023995;28;20200;-82
2023/01/29 05:06:37;;;;;;;8.83;7.77;;;;;;;;;;5027454;28;20386;-81
2023/01/29 05:09:04;;;;;;;8.40;7.60;;;;;;;;;;5028453;28;20195;-82
2023/01/29 05:11:32;;;;;;;8.10;7.30;;;;;;;;;;5026680;28;20209;-82
2023/01/29 05:14:00;;;;;;;9.07;7.90;;;;;;;;;;5029155;28;20275;-82
2023/01/29 05:16:29;;;;;;;7.90;7.20;;;;;;;;;;5026787;28;20334;-81
2023/01/29 05:18:57;;;;;;;7.93;7.23;;;;;;;;;;5024366;28;20192;-80
2023/01/29 05:21:25;;;;;;;9.93;7.57;;;;;;;;;;5028380;28;20199;-83
2023/01/29 05:24:09;;;;;;;8.43;7.43;;;;;;;;;;5029356;28;20295;-81
2023/01/29 05:29:21;;;;;;;7.83;7.03;;;;;;;;;;5029014;28;20199;-80
2023/01/29 05:31:48;;;;;;;7.90;7.10;;;;;;;;;;5029845;28;20258;-81
2023/01/29 05:34:17;;;;;;;8.20;7.30;;;;;;;;;;5028329;28;20200;-82
2023/01/29 05:36:44;;;;;;;8.50;7.47;;;;;;;;;;5027088;28;20192;-80
2023/01/29 05:39:11;;;;;;;7.93;7.13;;;;;;;;;;5028359;28;20196;-81
2023/01/29 05:41:38;;;;;;;8.97;8.07;;;;;;;;;;5027477;28;20197;-81
2023/01/29 05:44:06;;;;;;;7.73;7.03;;;;;;;;;;5028484;28;20200;-81
2023/01/29 05:46:33;;;;;;;8.33;7.53;;;;;;;;;;5028097;28;20223;-80
2023/01/29 05:49:00;;;;;;;9.00;7.70;;;;;;;;;;5026241;28;20212;-80
2023/01/29 05:51:29;;;;;;;8.10;7.30;;;;;;;;;;5025021;28;20200;-83
2023/01/29 05:53:56;;;;;;;7.87;7.07;;;;;;;;;;5018250;28;20208;-81
2023/01/29 05:56:24;;;;;;;7.30;6.60;;;;;;;;;;5020549;28;20268;-82
2023/01/29 05:58:51;;;;;;;8.20;7.40;;;;;;;;;;5019304;28;20715;-83
2023/01/29 06:01:20;;;;;;;8.70;7.70;;;;;;;;;;5017567;28;20215;-83
2023/01/29 06:03:47;;;;;;;8.27;7.47;;;;;;;;;;5020564;28;20200;-81
2023/01/29 06:06:14;;;;;;;7.77;6.97;;;;;;;;;;5025210;28;20239;-81
2023/01/29 06:08:43;;;;;;;8.83;7.93;;;;;;;;;;5023631;28;20227;-81
2023/01/29 06:11:11;;;;;;;9.07;8.20;;;;;;;;;;5021469;28;20212;-82
2023/01/29 06:13:38;;;;;;;8.90;8.00;;;;;;;;;;5023970;28;20202;-80
2023/01/29 06:16:06;;;;;;;11.60;8.20;;;;;;;;;;5026871;28;20246;-80
2023/01/29 06:18:33;;;;;;;8.13;7.30;;;;;;;;;;5028457;28;20195;-81
2023/01/29 06:21:01;;;;;;;8.27;7.43;;;;;;;;;;5027333;28;20203;-81
2023/01/29 06:23:28;;;;;;;9.47;7.53;;;;;;;;;;5024498;28;20207;-83
2023/01/29 06:26:01;;;;;;;8.30;7.50;;;;;;;;;;5022463;28;20355;-83
2023/01/29 06:28:28;;;;;;;7.40;6.70;;;;;;;;;;5024533;28;20279;-81
2023/01/29 06:30:58;;;;;;;9.40;8.03;;;;;;;;;;5025952;28;20196;-83
2023/01/29 06:33:25;;;;;;;9.03;8.13;;;;;;;;;;5022578;28;20196;-83
2023/01/29 06:35:56;;;;;;;10.97;8.17;;;;;;;;;;5024219;28;20314;-82
2023/01/29 06:38:24;;;;;;;10.93;9.77;;;;;;;;;;5022641;28;20204;-82
2023/01/29 06:40:51;;;;;;;11.03;8.73;;;;;;;;;;5028800;28;20236;-82
2023/01/29 06:43:20;;;;;;;10.57;7.73;;;;;;;;;;5026607;28;20308;-82
2023/01/29 06:45:48;;;;;;;7.97;7.17;;;;;;;;;;5025275;28;20222;-82
2023/01/29 06:48:15;;;;;;;8.40;7.60;;;;;;;;;;5024158;28;20295;-81
2023/01/29 06:50:42;;;;;;;7.87;7.13;;;;;;;;;;5027625;28;20220;-82
2023/01/29 06:53:09;;;;;;;8.17;7.37;;;;;;;;;;5019565;28;20283;-83
2023/01/29 06:55:37;;;;;;;9.23;7.37;;;;;;;;;;5022209;28;20199;-82
2023/01/29 06:58:06;;;;;;;9.50;8.60;;;;;;;;;;5019141;28;20263;-82
2023/01/29 07:00:35;;;;;;;8.77;7.97;;;;;;;;;;5020819;28;20211;-81
2023/01/29 07:03:02;;;;;;;8.77;7.87;;;;;;;;;;5015917;28;20291;-83
2023/01/29 07:05:29;;;;;;;8.67;7.87;;;;;;;;;;5018148;28;20215;-83
2023/01/29 07:07:56;;;;;;;9.53;8.63;;;;;;;;;;5020072;28;20211;-83
2023/01/29 07:10:24;;;;;;;9.53;7.57;;;;;;;;;;5025305;28;20219;-83
2023/01/29 07:12:51;;;;;;;10.23;7.80;;;;;;;;;;5021971;28;20210;-82
2023/01/29 07:15:20;;;;;;;8.63;7.80;;;;;;;;;;5024183;28;20255;-84
2023/01/29 07:18:00;;;;;;;10.13;7.77;;;;;;;;;;5022274;28;20302;-81
2023/01/29 07:20:27;;;;;;;8.90;8.00;;;;;;;;;;5024862;28;20200;-81
2023/01/29 07:22:55;;;;;;;8.83;7.80;;;;;;;;;;5025606;28;20294;-83
2023/01/29 07:25:22;;;;;;;9.30;8.40;;;;;;;;;;5023617;28;20275;-82
2023/01/29 07:27:49;;;;;;;9.33;8.40;;;;;;;;;;5019437;28;20290;-82
2023/01/29 07:30:17;;;;;;;8.37;7.57;;;;;;;;;;5028762;28;20204;-82
2023/01/29 07:32:44;;;;;;;9.13;8.17;;;;;;;;;;5022402;28;20287;-81
2023/01/29 07:35:13;;;;;;;10.13;8.60;;;;;;;;;;5022226;28;20199;-84
2023/01/29 07:37:40;;;;;;;8.90;8.10;;;;;;;;;;5019687;28;20286;-81
2023/01/29 07:40:10;;;;;;;9.90;8.90;;;;;;;;;;5025207;28;20200;-83
2023/01/29 07:42:38;;;;;;;11.43;9.93;;;;;;;;;;5024531;28;20196;-83
2023/01/29 07:45:05;;;;;;;10.30;8.80;;;;;;;;;;5023822;28;20192;-84
2023/01/29 07:47:33;;;;;;;10.50;9.50;;;;;;;;;;5025829;28;20219;-81
2023/01/29 07:50:00;;;;;;;10.80;9.63;;;;;;;;;;5025002;28;20204;-81
2023/01/29 07:52:29;;;;;;;11.10;10.00;;;;;;;;;;5024230;28;20287;-82
2023/01/29 07:54:56;;;;;;;11.07;9.90;;;;;;;;;;5023273;28;20275;-83
2023/01/29 07:57:24;;;;;;;11.63;10.43;;;;;;;;;;5023192;28;20203;-83
2023/01/29 07:59:51;;;;;;;10.50;9.40;;;;;;;;;;5023217;28;20227;-83
2023/01/29 08:02:18;;;;;;;11.57;10.37;;;;;;;;;;5023732;28;20204;-82
2023/01/29 08:04:45;;;;;;;10.83;9.70;;;;;;;;;;5023985;28;20191;-81
2023/01/29 08:07:13;;;;;;;10.43;9.33;;;;;;;;;;5021110;28;20231;-82
2023/01/29 08:09:41;;;;;;;11.97;10.10;;;;;;;;;;5022956;28;20203;-81
2023/01/29 08:12:08;;;;;;;13.77;10.90;;;;;;;;;;5023773;28;20282;-81
2023/01/29 08:14:36;;;;;;;12.20;10.87;;;;;;;;;;5020230;28;20204;-81
2023/01/29 08:17:03;;;;;;;11.73;10.50;;;;;;;;;;5016967;28;20599;-82
2023/01/29 08:19:30;;;;;;;12.17;10.83;;;;;;;;;;5016108;28;20287;-82
2023/01/29 08:21:57;;;;;;;12.50;10.80;;;;;;;;;;5017220;28;20203;-82
2023/01/29 08:24:24;;;;;;;12.00;10.73;;;;;;;;;;5010020;28;20205;-79
2023/01/29 08:26:53;;;;;;;12.80;10.90;;;;;;;;;;5013826;28;20231;-81
2023/01/29 08:29:20;;;;;;;12.70;11.40;;;;;;;;;;5019174;28;20208;-81
2023/01/29 08:31:48;;;;;;;11.63;10.23;;;;;;;;;;5022942;28;20208;-84
2023/01/29 08:34:15;;;;;;;12.20;11.00;;;;;;;;;;5018352;28;20204;-81
2023/01/29 08:36:42;;;;;;;11.77;10.53;;;;;;;;;;5016816;28;20203;-80
2023/01/29 08:39:09;;;;;;;13.40;11.83;;;;;;;;;;5015267;28;20226;-80
2023/01/29 08:41:37;;;;;;;12.17;10.77;;;;;;;;;;5016791;28;20218;-81
2023/01/29 08:44:05;;;;;;;12.33;11.07;;;;;;;;;;5018189;28;20278;-82
2023/01/29 08:46:33;;;;;;;12.80;11.37;;;;;;;;;;5018428;28;20223;-82
2023/01/29 08:49:00;;;;;;;13.63;11.50;;;;;;;;;;5030305;28;20199;-80
2023/01/29 08:51:27;;;;;;;13.03;11.30;;;;;;;;;;5030598;28;20185;-80
2023/01/29 08:53:54;;;;;;;13.87;12.17;;;;;;;;;;5026425;28;20228;-81
2023/01/29 08:56:22;;;;;;;13.13;11.67;;;;;;;;;;5028054;28;20212;-78
2023/01/29 08:58:49;;;;;;;12.90;11.60;;;;;;;;;;5028630;28;20196;-78
2023/01/29 09:01:18;;;;;;;13.10;11.07;;;;;;;;;;5026211;28;20283;-80
2023/01/29 09:03:45;;;;;;;13.40;11.63;;;;;;;;;;5024171;28;20310;-78
2023/01/29 09:06:13;;;;;;;14.23;12.60;;;;;;;;;;5022799;28;20239;-83
2023/01/29 09:08:41;;;;;;;13.37;11.97;;;;;;;;;;5022768;28;20215;-83
2023/01/29 09:11:09;;;;;;;13.67;12.27;;;;;;;;;;5026519;28;20294;-83
2023/01/29 09:13:36;;;;;;;13.83;12.43;;;;;;;;;;5019775;28;20275;-80
2023/01/29 09:16:04;;;;;;;13.87;12.10;;;;;;;;;;5035113;28;20270;-82
2023/01/29 09:18:33;;;;;;;14.67;12.30;;;;;;;;;;5026799;28;20199;-81
2023/01/29 09:21:01;;;;;;;13.50;12.07;;;;;;;;;;5024371;28;20287;-81
2023/01/29 09:23:29;;;;;;;13.33;11.30;;;;;;;;;;5024159;28;20208;-80
2023/01/29 09:25:56;;;;;;;14.13;12.50;;;;;;;;;;5029348;28;20286;-81
2023/01/29 09:28:23;;;;;;;14.47;12.77;;;;;;;;;;5028749;28;20201;-80
2023/01/29 09:30:50;;;;;;;14.80;12.83;;;;;;;;;;5033189;28;20207;-81
2023/01/29 09:33:18;;;;;;;13.17;11.83;;;;;;;;;;5028192;28;20199;-83
2023/01/29 09:35:47;;;;;;;15.13;11.50;;;;;;;;;;5021653;28;20207;-81
2023/01/29 09:38:14;;;;;;;15.73;12.33;;;;;;;;;;5024479;28;20196;-79
2023/01/29 09:40:47;;;;;;;15.53;13.87;;;;;;;;;;5026038;28;20294;-82
2023/01/29 09:43:17;;;;;;;17.37;15.53;;;;;;;;;;5027698;28;20263;-82
2023/01/29 09:45:50;;;;;;;18.63;15.33;;;;;;;;;;5027096;28;20291;-81
2023/01/29 09:48:17;;;;;;;14.80;13.20;;;;;;;;;;5024299;28;20211;-80
2023/01/29 09:50:47;;;;;;;15.63;12.93;;;;;;;;;;5025908;28;20295;-80
2023/01/29 09:53:18;;;;;;;15.60;13.53;;;;;;;;;;5025087;28;20207;-80
2023/01/29 09:55:47;;;;;;;14.73;13.13;;;;;;;;;;5023190;28;20207;-84
2023/01/29 09:58:19;;;;;;;15.00;13.17;;;;;;;;;;5023623;28;20204;-83
2023/01/29 10:00:49;;;;;;;15.40;13.07;;;;;;;;;;5020745;28;20209;-81
2023/01/29 10:03:24;;;;;;;16.57;14.07;;;;;;;;;;5025808;28;20220;-81
2023/01/29 10:06:00;;;;;;;16.13;13.27;;;;;;;;;;5027493;28;20234;-85
2023/01/29 10:08:37;;;;;;;14.80;13.17;;;;;;;;;;5031543;28;20286;-85
2023/01/29 10:11:08;;;;;;;15.63;13.47;;;;;;;;;;5016842;28;20206;-86
2023/01/29 10:13:40;;;;;;;16.73;14.50;;;;;;;;;;5018004;28;20207;-85
2023/01/29 10:16:17;;;;;;;22.70;15.97;;;;;;;;;;5015796;28;20394;-87
2023/01/29 10:18:53;;;;;;;18.43;14.57;;;;;;;;;;5006455;28;20212;-84
2023/01/29 10:21:27;;;;;;;17.73;14.37;;;;;;;;;;5014858;28;20291;-83
2023/01/29 10:23:57;;;;;;;18.03;15.80;;;;;;;;;;5015010;28;20209;-84
2023/01/29 10:26:26;;;;;;;18.63;15.90;;;;;;;;;;5016174;28;20477;-85
2023/01/29 10:28:55;;;;;;;19.93;17.40;;;;;;;;;;5018676;28;20285;-84
2023/01/29 10:31:26;;;;;;;19.03;15.87;;;;;;;;;;5016082;28;20200;-84
2023/01/29 10:33:55;;;;;;;21.33;15.73;;;;;;;;;;5015021;28;20200;-83
2023/01/29 10:36:24;;;;;;;20.80;15.60;;;;;;;;;;5029715;28;20192;-84
2023/01/29 10:38:54;;;;;;;19.83;16.00;;;;;;;;;;5028025;28;20200;-89
2023/01/29 10:41:27;;;;;;;17.73;15.37;;;;;;;;;;5021233;28;20206;-87
2023/01/29 10:44:09;;;;;;;19.70;16.70;;;;;;;;;;5015623;28;20208;-88
2023/01/29 10:46:46;;;;;;;19.43;16.50;;;;;;;;;;5017792;28;20239;-86
2023/01/29 10:49:19;;;;;;;20.50;17.13;;;;;;;;;;5012508;28;20215;-84
2023/01/29 10:51:53;;;;;;;18.67;15.57;;;;;;;;;;5015563;28;20239;-82
2023/01/29 10:54:27;;;;;;;19.93;16.43;;;;;;;;;;5017495;28;20302;-79
2023/01/29 10:57:00;;;;;;;21.03;15.43;;;;;;;;;;5022526;28;20306;-83
2023/01/29 10:59:33;;;;;;;19.30;16.20;;;;;;;;;;5022760;28;20200;-82
2023/01/29 11:02:02;;;;;;;20.77;16.30;;;;;;;;;;5023284;28;20203;-81
2023/01/29 11:04:30;;;;;;;19.37;15.20;;;;;;;;;;5016378;28;20346;-82
2023/01/29 11:06:57;;;;;;;19.67;15.97;;;;;;;;;;5013903;28;20233;-81
2023/01/29 11:09:29;;;;;;;18.93;16.27;;;;;;;;;;5017152;28;20297;-81
2023/01/29 11:11:58;;;;;;;22.30;17.07;;;;;;;;;;5022905;28;20204;-86
2023/01/29 11:14:27;;;;;;;19.50;16.47;;;;;;;;;;5023410;28;20212;-80
2023/01/29 11:16:54;;;;;;;20.10;16.50;;;;;;;;;;5023243;28;20246;-82
2023/01/29 11:19:36;;;;;;;22.90;16.97;;;;;;;;;;5022052;28;20193;-85
2023/01/29 11:22:04;;;;;;;20.90;16.63;;;;;;;;;;5013982;28;20227;-82
2023/01/29 11:24:32;;;;;;;20.17;17.17;;;;;;;;;;5018180;28;20196;-86
2023/01/29 11:27:00;;;;;;;26.27;20.20;;;;;;;;;;5016290;28;20247;-83
2023/01/29 11:29:30;;;;;;;22.13;17.70;;;;;;;;;;5011885;28;20205;-84
2023/01/29 11:31:58;;;;;;;19.27;16.07;;;;;;;;;;5013513;28;20202;-85
2023/01/29 11:34:26;;;;;;;22.23;17.80;;;;;;;;;;5013461;28;20204;-84
2023/01/29 11:36:57;;;;;;;20.93;17.30;;;;;;;;;;5013797;28;20196;-83
2023/01/29 11:39:26;;;;;;;20.10;16.83;;;;;;;;;;5019699;28;20275;-84
2023/01/29 11:41:56;;;;;;;20.77;17.67;;;;;;;;;;5020012;28;20212;-81
2023/01/29 11:44:35;;;;;;;22.87;17.50;;;;;;;;;;5016424;28;20283;-83
2023/01/29 11:47:12;;;;;;;22.33;17.77;;;;;;;;;;5017909;28;20332;-84
2023/01/29 11:49:40;;;;;;;20.17;17.57;;;;;;;;;;5019250;28;20295;-84
2023/01/29 11:52:09;;;;;;;21.10;17.33;;;;;;;;;;5019920;28;20294;-80
2023/01/29 11:54:39;;;;;;;23.03;17.70;;;;;;;;;;5018920;28;20205;-85
2023/01/29 11:57:16;;;;;;;24.27;20.03;;;;;;;;;;5018014;28;20208;-83
2023/01/29 11:59:47;;;;;;;25.87;20.97;;;;;;;;;;5019279;28;20287;-82
2023/01/29 12:02:26;;;;;;;21.90;18.00;;;;;;;;;;5019384;28;20208;-81
2023/01/29 12:04:54;;;;;;;21.67;17.80;;;;;;;;;;5015932;28;20212;-83
2023/01/29 12:07:22;;;;;;;20.87;17.00;;;;;;;;;;5015914;28;20216;-82
2023/01/29 12:09:50;;;;;;;20.43;17.00;;;;;;;;;;5018715;28;20200;-85
2023/01/29 12:12:28;;;;;;;22.07;17.47;;;;;;;;;;5018787;28;20208;-82
2023/01/29 12:15:03;;;;;;;23.43;18.07;;;;;;;;;;5018992;28;20196;-86
2023/01/29 12:17:31;;;;;;;20.87;18.33;;;;;;;;;;5018552;28;20327;-85
2023/01/29 12:20:01;;;;;;;23.60;19.20;;;;;;;;;;5018637;28;20212;-83
2023/01/29 12:22:35;;;;;;;22.47;17.90;;;;;;;;;;5017410;28;20291;-84
2023/01/29 12:25:04;;;;;;;24.03;19.57;;;;;;;;;;5019317;28;20199;-84
2023/01/29 12:27:36;;;;;;;21.63;17.50;;;;;;;;;;5014965;28;20224;-83
2023/01/29 12:30:06;;;;;;;22.87;18.10;;;;;;;;;;5011903;28;20306;-85
2023/01/29 12:32:38;;;;;;;22.33;18.83;;;;;;;;;;5015417;28;20268;-85
2023/01/29 12:35:07;;;;;;;22.30;18.53;;;;;;;;;;5019263;28;20207;-83
2023/01/29 12:37:37;;;;;;;24.40;19.93;;;;;;;;;;5013518;28;20288;-84
2023/01/29 12:40:11;;;;;;;24.33;19.27;;;;;;;;;;5018710;28;20212;-83
2023/01/29 12:42:42;;;;;;;23.37;19.23;;;;;;;;;;5015807;28;20311;-80
2023/01/29 12:45:10;;;;;;;21.70;17.87;;;;;;;;;;5016466;28;20308;-82
2023/01/29 12:47:39;;;;;;;22.47;18.67;;;;;;;;;;5008590;28;20229;-84
2023/01/29 12:50:07;;;;;;;22.10;18.43;;;;;;;;;;5018628;28;20271;-83
2023/01/29 12:52:38;;;;;;;24.50;19.60;;;;;;;;;;5019075;28;20207;-82
2023/01/29 12:55:09;;;;;;;22.40;18.70;;;;;;;;;;5016638;28;20219;-85
2023/01/29 12:57:40;;;;;;;23.90;19.73;;;;;;;;;;5016042;28;20212;-84
2023/01/29 13:00:13;;;;;;;24.90;19.47;;;;;;;;;;5019465;28;20208;-81
2023/01/29 13:02:45;;;;;;;27.77;21.37;;;;;;;;;;5010189;28;20217;-83
2023/01/29 13:05:18;;;;;;;26.07;20.43;;;;;;;;;;5016620;28;20296;-84
2023/01/29 13:07:48;;;;;;;28.87;21.73;;;;;;;;;;5018203;28;20311;-85
2023/01/29 13:10:18;;;;;;;26.93;21.10;;;;;;;;;;5018859;28;20218;-82
2023/01/29 13:12:49;;;;;;;25.73;20.90;;;;;;;;;;5018269;28;20208;-82
2023/01/29 13:15:23;;;;;;;27.83;21.77;;;;;;;;;;5021225;28;20292;-83
2023/01/29 13:17:52;;;;;;;26.67;21.20;;;;;;;;;;5018315;28;20232;-84
2023/01/29 13:20:21;;;;;;;27.73;21.37;;;;;;;;;;5022092;28;20196;-84
2023/01/29 13:22:49;;;;;;;24.90;20.67;;;;;;;;;;5022297;28;20230;-85
2023/01/29 13:25:17;;;;;;;29.97;22.73;;;;;;;;;;5021473;28;20307;-84
2023/01/29 13:27:46;;;;;;;29.40;21.57;;;;;;;;;;5019532;28;20256;-86
2023/01/29 13:30:26;;;;;;;27.70;21.97;;;;;;;;;;5020185;28;20210;-85
2023/01/29 13:32:54;;;;;;;28.83;21.17;;;;;;;;;;5015903;28;20231;-83
2023/01/29 13:35:22;;;;;;;25.60;21.13;;;;;;;;;;5021949;28;20235;-82
2023/01/29 13:37:50;;;;;;;28.30;21.67;;;;;;;;;;5021675;28;20212;-85
2023/01/29 13:40:24;;;;;;;27.17;21.67;;;;;;;;;;5020087;28;20207;-83
2023/01/29 13:42:53;;;;;;;27.53;21.43;;;;;;;;;;5016775;28;20207;-84
2023/01/29 13:45:21;;;;;;;28.80;21.90;;;;;;;;;;5021224;28;20286;-85
2023/01/29 13:47:50;;;;;;;25.57;20.73;;;;;;;;;;5021858;28;20314;-85
2023/01/29 13:50:21;;;;;;;28.93;21.70;;;;;;;;;;5021951;28;20276;-84
2023/01/29 13:52:53;;;;;;;29.00;22.67;;;;;;;;;;5020129;28;20212;-81
2023/01/29 13:55:25;;;;;;;24.93;19.33;;;;;;;;;;5018282;28;20192;-82
2023/01/29 13:57:56;;;;;;;27.03;21.30;;;;;;;;;;5018305;28;20200;-85
2023/01/29 14:01:00;;;;;;;28.30;22.17;;;;;;;;;;5020684;28;20308;-84
2023/01/29 14:03:41;;;;;;;30.83;22.80;;;;;;;;;;5016306;28;20207;-86
2023/01/29 14:06:09;;;;;;;29.13;22.20;;;;;;;;;;5015034;28;20208;-85
2023/01/29 14:08:40;;;;;;;28.63;22.30;;;;;;;;;;5014992;28;20274;-85
2023/01/29 14:11:26;;;;;;;29.83;22.67;;;;;;;;;;5023371;28;20208;-88
2023/01/29 14:13:53;;;;;;;29.07;22.23;;;;;;;;;;5016585;28;20215;-80
2023/01/29 14:16:36;;;;;;;30.63;21.57;;;;;;;;;;5023168;28;20306;-78
2023/01/29 14:19:06;;;;;;;27.23;20.30;;;;;;;;;;5026482;28;20263;-79
2023/01/29 14:21:34;;;;;;;27.33;21.43;;;;;;;;;;5021528;28;20285;-83
2023/01/29 14:24:09;;;;;;;26.53;20.43;;;;;;;;;;5022918;28;20208;-81
2023/01/29 14:26:44;;;;;;;30.47;21.93;;;;;;;;;;5025866;28;20195;-80
2023/01/29 14:29:17;;;;;;;28.27;22.43;;;;;;;;;;5026724;28;20251;-84
2023/01/29 14:31:48;;;;;;;27.40;21.17;;;;;;;;;;5027605;28;20263;-80
2023/01/29 14:34:19;;;;;;;26.97;20.67;;;;;;;;;;5027181;28;20192;-80
2023/01/29 14:36:54;;;;;;;33.80;23.20;;;;;;;;;;5014614;28;20196;-84
2023/01/29 14:39:23;;;;;;;33.60;23.20;;;;;;;;;;5013158;28;20235;-84
2023/01/29 14:41:51;;;;;;;38.33;25.50;;;;;;;;;;5011841;28;20194;-86
2023/01/29 14:44:36;;;;;;;30.53;23.00;;;;;;;;;;5018691;28;20287;-90
2023/01/29 14:47:03;;;;;;;29.77;21.33;;;;;;;;;;5017825;28;20269;-84
2023/01/29 14:49:50;;;;;;;27.23;20.93;;;;;;;;;;5013539;28;20235;-87
2023/01/29 14:52:17;;;;;;;28.90;21.63;;;;;;;;;;5017761;28;20215;-83
2023/01/29 14:54:46;;;;;;;30.03;21.87;;;;;;;;;;5017059;28;20196;-82
2023/01/29 14:57:15;;;;;;;29.80;21.83;;;;;;;;;;5009723;28;20312;-88
2023/01/29 14:59:47;;;;;;;28.97;20.83;;;;;;;;;;5016222;28;20232;-84
2023/01/29 15:02:17;;;;;;;25.30;19.93;;;;;;;;;;5020755;28;20287;-79
2023/01/29 15:04:47;;;;;;;24.63;19.73;;;;;;;;;;5026525;28;20224;-82
2023/01/29 15:07:21;;;;;;;28.03;20.23;;;;;;;;;;5014100;28;20204;-84
2023/01/29 15:09:50;;;;;;;26.90;20.23;;;;;;;;;;5017566;28;20293;-82
2023/01/29 15:12:20;;;;;;;29.83;20.77;;;;;;;;;;5018084;28;20204;-82
2023/01/29 15:14:51;;;;;;;25.40;19.97;;;;;;;;;;5013413;28;20228;-86